sensor_id;sensor_type;location;lat;lon;timestamp;temperature;humidity
21770;DHT22;11046;49.558;8.674;2023-05-25T00:02:28;10.00;72.10
21770;DHT22;11046;49.558;8.674;2023-05-25T00:05:28;10.00;72.30
21770;DHT22;11046;49.558;8.674;2023-05-25T00:08:29;10.00;72.40
21770;DHT22;11046;49.558;8.674;2023-05-25T00:11:30;10.00;72.40
21770;DHT22;11046;49.558;8.674;2023-05-25T00:14:30;10.00;72.60
21770;DHT22;11046;49.558;8.674;2023-05-25T00:17:31;10.00;72.70
21770;DHT22;11046;49.558;8.674;2023-05-25T00:20:33;10.00;72.60
21770;DHT22;11046;49.558;8.674;2023-05-25T00:23:34;10.10;72.70
21770;DHT22;11046;49.558;8.674;2023-05-25T00:26:34;10.20;72.60
21770;DHT22;11046;49.558;8.674;2023-05-25T00:29:35;10.20;72.50
21770;DHT22;11046;49.558;8.674;2023-05-25T00:32:35;10.20;72.40
21770;DHT22;11046;49.558;8.674;2023-05-25T00:35:36;10.10;72.30
21770;DHT22;11046;49.558;8.674;2023-05-25T00:38:37;10.10;72.70
21770;DHT22;11046;49.558;8.674;2023-05-25T00:41:39;10.00;72.80
21770;DHT22;11046;49.558;8.674;2023-05-25T00:44:41;10.00;72.90
21770;DHT22;11046;49.558;8.674;2023-05-25T00:47:42;9.90;73.00
21770;DHT22;11046;49.558;8.674;2023-05-25T00:50:43;9.90;73.20
21770;DHT22;11046;49.558;8.674;2023-05-25T00:53:45;9.90;73.20
21770;DHT22;11046;49.558;8.674;2023-05-25T00:57:01;10.00;73.00
21770;DHT22;11046;49.558;8.674;2023-05-25T01:00:04;10.00;72.80
21770;DHT22;11046;49.558;8.674;2023-05-25T01:03:14;9.90;72.90
21770;DHT22;11046;49.558;8.674;2023-05-25T01:06:21;9.90;73.20
21770;DHT22;11046;49.558;8.674;2023-05-25T01:09:23;9.90;73.30
21770;DHT22;11046;49.558;8.674;2023-05-25T01:12:28;9.90;73.10
21770;DHT22;11046;49.558;8.674;2023-05-25T01:15:29;9.80;73.30
21770;DHT22;11046;49.558;8.674;2023-05-25T01:18:30;9.70;73.50
21770;DHT22;11046;49.558;8.674;2023-05-25T01:21:35;9.60;73.90
21770;DHT22;11046;49.558;8.674;2023-05-25T01:24:45;9.50;74.50
21770;DHT22;11046;49.558;8.674;2023-05-25T01:27:53;9.50;74.80
21770;DHT22;11046;49.558;8.674;2023-05-25T01:30:55;9.40;75.00
21770;DHT22;11046;49.558;8.674;2023-05-25T01:33:56;9.50;75.00
21770;DHT22;11046;49.558;8.674;2023-05-25T01:36:57;9.50;75.10
21770;DHT22;11046;49.558;8.674;2023-05-25T01:39:58;9.50;75.00
21770;DHT22;11046;49.558;8.674;2023-05-25T01:42:59;9.50;75.10
21770;DHT22;11046;49.558;8.674;2023-05-25T01:46:11;9.60;75.10
21770;DHT22;11046;49.558;8.674;2023-05-25T01:49:27;9.60;75.20
21770;DHT22;11046;49.558;8.674;2023-05-25T01:52:40;9.60;75.40
21770;DHT22;11046;49.558;8.674;2023-05-25T01:56:06;9.60;75.30
21770;DHT22;11046;49.558;8.674;2023-05-25T01:59:09;9.60;75.60
21770;DHT22;11046;49.558;8.674;2023-05-25T02:02:12;9.60;75.40
21770;DHT22;11046;49.558;8.674;2023-05-25T02:05:14;9.60;75.60
21770;DHT22;11046;49.558;8.674;2023-05-25T02:08:15;9.50;75.60
21770;DHT22;11046;49.558;8.674;2023-05-25T02:11:16;9.50;75.90
21770;DHT22;11046;49.558;8.674;2023-05-25T02:14:16;9.50;76.10
21770;DHT22;11046;49.558;8.674;2023-05-25T02:17:17;9.50;76.20
21770;DHT22;11046;49.558;8.674;2023-05-25T02:20:18;9.50;76.30
21770;DHT22;11046;49.558;8.674;2023-05-25T02:23:19;9.40;76.40
21770;DHT22;11046;49.558;8.674;2023-05-25T02:26:20;9.40;76.50
21770;DHT22;11046;49.558;8.674;2023-05-25T02:29:21;9.40;76.70
21770;DHT22;11046;49.558;8.674;2023-05-25T02:32:21;9.40;76.90
21770;DHT22;11046;49.558;8.674;2023-05-25T02:35:22;9.30;77.10
21770;DHT22;11046;49.558;8.674;2023-05-25T02:38:23;9.30;77.30
21770;DHT22;11046;49.558;8.674;2023-05-25T02:41:24;9.20;77.30
21770;DHT22;11046;49.558;8.674;2023-05-25T02:44:25;9.20;77.50
21770;DHT22;11046;49.558;8.674;2023-05-25T02:47:26;9.20;77.70
21770;DHT22;11046;49.558;8.674;2023-05-25T02:50:27;9.10;77.90
21770;DHT22;11046;49.558;8.674;2023-05-25T02:53:30;9.10;78.10
21770;DHT22;11046;49.558;8.674;2023-05-25T02:56:31;9.10;78.30
21770;DHT22;11046;49.558;8.674;2023-05-25T02:59:33;9.00;78.60
21770;DHT22;11046;49.558;8.674;2023-05-25T03:02:34;9.00;78.80
21770;DHT22;11046;49.558;8.674;2023-05-25T03:05:36;9.10;78.80
21770;DHT22;11046;49.558;8.674;2023-05-25T03:08:38;9.10;78.80
21770;DHT22;11046;49.558;8.674;2023-05-25T03:11:39;9.10;79.00
21770;DHT22;11046;49.558;8.674;2023-05-25T03:14:39;9.00;79.20
21770;DHT22;11046;49.558;8.674;2023-05-25T03:17:40;8.90;79.20
21770;DHT22;11046;49.558;8.674;2023-05-25T03:20:41;8.90;79.40
21770;DHT22;11046;49.558;8.674;2023-05-25T03:23:43;9.00;79.50
21770;DHT22;11046;49.558;8.674;2023-05-25T03:26:43;9.00;79.50
21770;DHT22;11046;49.558;8.674;2023-05-25T03:29:44;9.00;79.50
21770;DHT22;11046;49.558;8.674;2023-05-25T03:32:45;8.90;79.70
21770;DHT22;11046;49.558;8.674;2023-05-25T03:35:45;9.00;80.00
21770;DHT22;11046;49.558;8.674;2023-05-25T03:38:46;8.90;80.00
21770;DHT22;11046;49.558;8.674;2023-05-25T03:41:47;8.90;79.90
21770;DHT22;11046;49.558;8.674;2023-05-25T03:44:48;8.90;80.00
21770;DHT22;11046;49.558;8.674;2023-05-25T03:47:48;8.80;80.30
21770;DHT22;11046;49.558;8.674;2023-05-25T03:50:49;8.90;80.60
21770;DHT22;11046;49.558;8.674;2023-05-25T03:53:50;8.90;80.60
21770;DHT22;11046;49.558;8.674;2023-05-25T03:56:51;8.80;80.60
21770;DHT22;11046;49.558;8.674;2023-05-25T03:59:51;8.90;80.80
21770;DHT22;11046;49.558;8.674;2023-05-25T04:02:52;8.90;80.70
21770;DHT22;11046;49.558;8.674;2023-05-25T04:05:54;9.00;80.80
21770;DHT22;11046;49.558;8.674;2023-05-25T04:08:58;9.00;80.70
21770;DHT22;11046;49.558;8.674;2023-05-25T04:12:00;9.00;80.90
21770;DHT22;11046;49.558;8.674;2023-05-25T04:15:02;9.00;81.00
21770;DHT22;11046;49.558;8.674;2023-05-25T04:18:06;9.20;80.90
21770;DHT22;11046;49.558;8.674;2023-05-25T04:21:07;9.20;80.80
21770;DHT22;11046;49.558;8.674;2023-05-25T04:24:08;9.20;80.70
21770;DHT22;11046;49.558;8.674;2023-05-25T04:27:09;9.00;80.90
21770;DHT22;11046;49.558;8.674;2023-05-25T04:30:11;9.00;81.10
21770;DHT22;11046;49.558;8.674;2023-05-25T04:33:22;9.00;81.20
21770;DHT22;11046;49.558;8.674;2023-05-25T04:36:33;9.10;81.40
21770;DHT22;11046;49.558;8.674;2023-05-25T04:39:35;9.10;81.40
21770;DHT22;11046;49.558;8.674;2023-05-25T04:42:37;9.10;81.70
21770;DHT22;11046;49.558;8.674;2023-05-25T04:45:41;9.00;81.80
21770;DHT22;11046;49.558;8.674;2023-05-25T04:48:43;9.00;82.00
21770;DHT22;11046;49.558;8.674;2023-05-25T04:51:45;9.10;82.20
21770;DHT22;11046;49.558;8.674;2023-05-25T04:54:45;9.10;82.40
21770;DHT22;11046;49.558;8.674;2023-05-25T04:57:47;9.10;82.40
21770;DHT22;11046;49.558;8.674;2023-05-25T05:00:48;9.10;82.50
21770;DHT22;11046;49.558;8.674;2023-05-25T05:03:48;9.00;82.60
21770;DHT22;11046;49.558;8.674;2023-05-25T05:06:49;9.00;83.00
21770;DHT22;11046;49.558;8.674;2023-05-25T05:09:53;9.10;83.30
21770;DHT22;11046;49.558;8.674;2023-05-25T05:12:54;9.10;83.30
21770;DHT22;11046;49.558;8.674;2023-05-25T05:15:54;9.20;83.40
21770;DHT22;11046;49.558;8.674;2023-05-25T05:18:56;9.20;83.70
21770;DHT22;11046;49.558;8.674;2023-05-25T05:21:56;9.30;83.70
21770;DHT22;11046;49.558;8.674;2023-05-25T05:24:59;9.30;83.80
21770;DHT22;11046;49.558;8.674;2023-05-25T05:28:00;9.30;83.80
21770;DHT22;11046;49.558;8.674;2023-05-25T05:31:07;9.30;84.10
21770;DHT22;11046;49.558;8.674;2023-05-25T05:34:08;9.40;84.30
21770;DHT22;11046;49.558;8.674;2023-05-25T05:37:09;9.50;84.60
21770;DHT22;11046;49.558;8.674;2023-05-25T05:40:10;9.60;84.60
21770;DHT22;11046;49.558;8.674;2023-05-25T05:43:14;9.80;84.60
21770;DHT22;11046;49.558;8.674;2023-05-25T05:46:15;9.80;84.60
21770;DHT22;11046;49.558;8.674;2023-05-25T05:49:16;10.00;85.10
21770;DHT22;11046;49.558;8.674;2023-05-25T05:52:17;10.20;85.00
21770;DHT22;11046;49.558;8.674;2023-05-25T05:55:18;10.40;84.80
21770;DHT22;11046;49.558;8.674;2023-05-25T05:58:21;10.60;84.70
21770;DHT22;11046;49.558;8.674;2023-05-25T06:01:22;11.00;84.60
21770;DHT22;11046;49.558;8.674;2023-05-25T06:04:23;11.30;84.30
21770;DHT22;11046;49.558;8.674;2023-05-25T06:07:28;11.40;83.90
21770;DHT22;11046;49.558;8.674;2023-05-25T06:10:30;11.60;83.90
21770;DHT22;11046;49.558;8.674;2023-05-25T06:13:31;11.90;84.00
21770;DHT22;11046;49.558;8.674;2023-05-25T06:16:32;12.20;83.60
21770;DHT22;11046;49.558;8.674;2023-05-25T06:19:33;12.50;83.00
21770;DHT22;11046;49.558;8.674;2023-05-25T06:22:33;12.80;82.90
21770;DHT22;11046;49.558;8.674;2023-05-25T06:25:34;13.20;82.90
21770;DHT22;11046;49.558;8.674;2023-05-25T06:28:34;13.50;82.70
21770;DHT22;11046;49.558;8.674;2023-05-25T06:31:36;13.90;82.50
21770;DHT22;11046;49.558;8.674;2023-05-25T06:34:37;14.20;81.80
21770;DHT22;11046;49.558;8.674;2023-05-25T06:37:38;14.50;81.00
21770;DHT22;11046;49.558;8.674;2023-05-25T06:40:40;14.80;80.20
21770;DHT22;11046;49.558;8.674;2023-05-25T06:43:41;15.20;79.20
21770;DHT22;11046;49.558;8.674;2023-05-25T06:46:50;15.50;78.40
21770;DHT22;11046;49.558;8.674;2023-05-25T06:49:51;15.60;76.90
21770;DHT22;11046;49.558;8.674;2023-05-25T06:52:51;15.60;77.00
21770;DHT22;11046;49.558;8.674;2023-05-25T06:55:52;15.90;76.60
21770;DHT22;11046;49.558;8.674;2023-05-25T06:58:52;16.10;75.80
21770;DHT22;11046;49.558;8.674;2023-05-25T07:01:53;16.30;75.50
21770;DHT22;11046;49.558;8.674;2023-05-25T07:04:55;16.50;74.70
21770;DHT22;11046;49.558;8.674;2023-05-25T07:07:55;16.80;74.10
21770;DHT22;11046;49.558;8.674;2023-05-25T07:10:56;17.00;73.20
21770;DHT22;11046;49.558;8.674;2023-05-25T07:13:56;17.20;72.70
21770;DHT22;11046;49.558;8.674;2023-05-25T07:16:57;17.50;72.10
21770;DHT22;11046;49.558;8.674;2023-05-25T07:19:57;18.00;71.30
21770;DHT22;11046;49.558;8.674;2023-05-25T07:22:58;18.20;70.20
21770;DHT22;11046;49.558;8.674;2023-05-25T07:25:59;18.30;69.50
21770;DHT22;11046;49.558;8.674;2023-05-25T07:28:59;18.50;69.10
21770;DHT22;11046;49.558;8.674;2023-05-25T07:32:00;18.60;68.10
21770;DHT22;11046;49.558;8.674;2023-05-25T07:35:01;18.70;68.30
21770;DHT22;11046;49.558;8.674;2023-05-25T07:38:02;18.80;67.90
21770;DHT22;11046;49.558;8.674;2023-05-25T07:41:06;18.90;66.80
21770;DHT22;11046;49.558;8.674;2023-05-25T07:44:06;19.00;66.50
21770;DHT22;11046;49.558;8.674;2023-05-25T07:47:07;19.20;65.90
21770;DHT22;11046;49.558;8.674;2023-05-25T07:50:08;19.30;65.90
21770;DHT22;11046;49.558;8.674;2023-05-25T07:53:09;19.60;65.40
21770;DHT22;11046;49.558;8.674;2023-05-25T07:56:10;19.80;64.10
21770;DHT22;11046;49.558;8.674;2023-05-25T07:59:10;20.10;64.00
21770;DHT22;11046;49.558;8.674;2023-05-25T08:02:11;20.30;63.10
21770;DHT22;11046;49.558;8.674;2023-05-25T08:05:11;20.30;63.20
21770;DHT22;11046;49.558;8.674;2023-05-25T08:08:12;20.60;62.80
21770;DHT22;11046;49.558;8.674;2023-05-25T08:11:14;20.80;63.10
21770;DHT22;11046;49.558;8.674;2023-05-25T08:14:15;21.00;61.90
21770;DHT22;11046;49.558;8.674;2023-05-25T08:17:16;21.20;61.70
21770;DHT22;11046;49.558;8.674;2023-05-25T08:20:17;21.50;61.40
21770;DHT22;11046;49.558;8.674;2023-05-25T08:23:18;21.80;60.60
21770;DHT22;11046;49.558;8.674;2023-05-25T08:26:18;21.90;60.80
21770;DHT22;11046;49.558;8.674;2023-05-25T08:29:19;22.00;59.40
21770;DHT22;11046;49.558;8.674;2023-05-25T08:32:20;22.00;58.80
21770;DHT22;11046;49.558;8.674;2023-05-25T08:35:20;22.20;58.60
21770;DHT22;11046;49.558;8.674;2023-05-25T08:38:21;22.30;58.00
21770;DHT22;11046;49.558;8.674;2023-05-25T08:41:25;22.80;57.50
21770;DHT22;11046;49.558;8.674;2023-05-25T08:44:26;22.90;56.80
21770;DHT22;11046;49.558;8.674;2023-05-25T08:47:30;23.00;56.20
21770;DHT22;11046;49.558;8.674;2023-05-25T08:50:33;23.10;55.50
21770;DHT22;11046;49.558;8.674;2023-05-25T08:53:36;23.20;55.30
21770;DHT22;11046;49.558;8.674;2023-05-25T08:56:51;23.10;54.90
21770;DHT22;11046;49.558;8.674;2023-05-25T08:59:59;23.10;55.00
21770;DHT22;11046;49.558;8.674;2023-05-25T09:03:09;23.10;54.90
21770;DHT22;11046;49.558;8.674;2023-05-25T09:06:10;23.30;54.50
21770;DHT22;11046;49.558;8.674;2023-05-25T09:09:11;23.30;54.70
21770;DHT22;11046;49.558;8.674;2023-05-25T09:12:13;23.30;54.70
21770;DHT22;11046;49.558;8.674;2023-05-25T09:15:14;23.40;54.30
21770;DHT22;11046;49.558;8.674;2023-05-25T09:18:15;23.40;53.90
21770;DHT22;11046;49.558;8.674;2023-05-25T09:21:15;23.30;53.70
21770;DHT22;11046;49.558;8.674;2023-05-25T09:24:17;23.40;53.80
21770;DHT22;11046;49.558;8.674;2023-05-25T09:27:20;23.60;53.60
21770;DHT22;11046;49.558;8.674;2023-05-25T09:30:21;23.70;53.40
21770;DHT22;11046;49.558;8.674;2023-05-25T09:33:22;24.00;53.30
21770;DHT22;11046;49.558;8.674;2023-05-25T09:36:22;24.30;53.00
21770;DHT22;11046;49.558;8.674;2023-05-25T09:39:24;24.60;52.80
21770;DHT22;11046;49.558;8.674;2023-05-25T09:42:25;24.50;52.70
21770;DHT22;11046;49.558;8.674;2023-05-25T09:45:26;24.40;52.40
21770;DHT22;11046;49.558;8.674;2023-05-25T09:48:26;24.30;52.10
21770;DHT22;11046;49.558;8.674;2023-05-25T09:51:29;24.40;52.20
21770;DHT22;11046;49.558;8.674;2023-05-25T09:54:32;24.50;52.30
21770;DHT22;11046;49.558;8.674;2023-05-25T09:57:35;24.50;51.50
21770;DHT22;11046;49.558;8.674;2023-05-25T10:00:35;24.30;51.50
21770;DHT22;11046;49.558;8.674;2023-05-25T10:03:44;24.30;52.40
21770;DHT22;11046;49.558;8.674;2023-05-25T10:06:47;24.40;51.70
21770;DHT22;11046;49.558;8.674;2023-05-25T10:09:51;24.50;51.60
21770;DHT22;11046;49.558;8.674;2023-05-25T10:12:54;24.60;51.50
21770;DHT22;11046;49.558;8.674;2023-05-25T10:15:56;24.80;51.00
21770;DHT22;11046;49.558;8.674;2023-05-25T10:18:59;24.60;50.80
21770;DHT22;11046;49.558;8.674;2023-05-25T10:22:24;24.60;50.80
21770;DHT22;11046;49.558;8.674;2023-05-25T10:25:32;24.70;50.60
21770;DHT22;11046;49.558;8.674;2023-05-25T10:28:38;24.90;50.90
21770;DHT22;11046;49.558;8.674;2023-05-25T10:31:39;24.90;50.20
21770;DHT22;11046;49.558;8.674;2023-05-25T10:34:40;24.90;50.40
21770;DHT22;11046;49.558;8.674;2023-05-25T10:37:41;25.10;50.50
21770;DHT22;11046;49.558;8.674;2023-05-25T10:40:44;25.40;50.70
21770;DHT22;11046;49.558;8.674;2023-05-25T10:43:47;25.40;50.10
21770;DHT22;11046;49.558;8.674;2023-05-25T10:46:48;25.30;50.50
21770;DHT22;11046;49.558;8.674;2023-05-25T10:49:58;25.40;50.40
21770;DHT22;11046;49.558;8.674;2023-05-25T10:53:05;25.50;49.00
21770;DHT22;11046;49.558;8.674;2023-05-25T10:56:07;25.40;49.10
21770;DHT22;11046;49.558;8.674;2023-05-25T10:59:12;25.40;49.20
21770;DHT22;11046;49.558;8.674;2023-05-25T11:02:14;25.40;48.60
21770;DHT22;11046;49.558;8.674;2023-05-25T11:08:54;25.60;48.20
21770;DHT22;11046;49.558;8.674;2023-05-25T11:15:11;25.30;47.60
21770;DHT22;11046;49.558;8.674;2023-05-25T11:18:14;25.30;47.70
21770;DHT22;11046;49.558;8.674;2023-05-25T11:24:29;25.30;47.80
21770;DHT22;11046;49.558;8.674;2023-05-25T11:27:31;25.60;48.00
21770;DHT22;11046;49.558;8.674;2023-05-25T11:30:32;25.70;47.70
21770;DHT22;11046;49.558;8.674;2023-05-25T11:33:33;26.00;47.50
21770;DHT22;11046;49.558;8.674;2023-05-25T11:36:35;26.20;47.00
21770;DHT22;11046;49.558;8.674;2023-05-25T11:39:35;26.20;46.60
21770;DHT22;11046;49.558;8.674;2023-05-25T11:42:36;26.30;46.60
21770;DHT22;11046;49.558;8.674;2023-05-25T11:45:37;26.40;46.60
21770;DHT22;11046;49.558;8.674;2023-05-25T11:48:43;26.50;46.90
21770;DHT22;11046;49.558;8.674;2023-05-25T11:51:44;26.70;45.90
21770;DHT22;11046;49.558;8.674;2023-05-25T11:54:45;26.70;45.60
21770;DHT22;11046;49.558;8.674;2023-05-25T11:57:46;26.40;45.90
21770;DHT22;11046;49.558;8.674;2023-05-25T12:00:46;26.40;45.80
21770;DHT22;11046;49.558;8.674;2023-05-25T12:03:49;26.40;45.40
21770;DHT22;11046;49.558;8.674;2023-05-25T12:06:49;26.40;45.50
21770;DHT22;11046;49.558;8.674;2023-05-25T12:09:51;26.50;45.20
21770;DHT22;11046;49.558;8.674;2023-05-25T12:12:52;26.30;46.00
21770;DHT22;11046;49.558;8.674;2023-05-25T12:15:57;26.40;45.80
21770;DHT22;11046;49.558;8.674;2023-05-25T12:18:59;26.40;45.50
21770;DHT22;11046;49.558;8.674;2023-05-25T12:22:02;26.50;45.20
21770;DHT22;11046;49.558;8.674;2023-05-25T12:25:05;26.50;45.20
21770;DHT22;11046;49.558;8.674;2023-05-25T12:28:13;26.70;44.70
21770;DHT22;11046;49.558;8.674;2023-05-25T12:31:25;26.80;44.40
21770;DHT22;11046;49.558;8.674;2023-05-25T12:34:26;26.80;44.90
21770;DHT22;11046;49.558;8.674;2023-05-25T12:37:28;26.90;45.10
21770;DHT22;11046;49.558;8.674;2023-05-25T12:40:29;26.90;44.50
21770;DHT22;11046;49.558;8.674;2023-05-25T12:43:37;27.00;45.20
21770;DHT22;11046;49.558;8.674;2023-05-25T12:46:38;27.00;44.20
21770;DHT22;11046;49.558;8.674;2023-05-25T12:49:40;26.90;44.40
21770;DHT22;11046;49.558;8.674;2023-05-25T12:52:42;27.20;44.40
21770;DHT22;11046;49.558;8.674;2023-05-25T12:55:43;27.10;44.70
21770;DHT22;11046;49.558;8.674;2023-05-25T12:58:44;26.90;44.10
21770;DHT22;11046;49.558;8.674;2023-05-25T13:01:44;26.80;44.40
21770;DHT22;11046;49.558;8.674;2023-05-25T13:04:45;26.80;45.00
21770;DHT22;11046;49.558;8.674;2023-05-25T13:07:46;26.90;44.40
21770;DHT22;11046;49.558;8.674;2023-05-25T13:10:49;27.00;43.80
21770;DHT22;11046;49.558;8.674;2023-05-25T13:13:50;26.70;44.00
21770;DHT22;11046;49.558;8.674;2023-05-25T13:16:53;26.60;44.40
21770;DHT22;11046;49.558;8.674;2023-05-25T13:19:53;26.70;44.30
21770;DHT22;11046;49.558;8.674;2023-05-25T13:22:54;26.70;44.00
21770;DHT22;11046;49.558;8.674;2023-05-25T13:25:55;26.70;43.60
21770;DHT22;11046;49.558;8.674;2023-05-25T13:28:55;26.70;44.00
21770;DHT22;11046;49.558;8.674;2023-05-25T13:31:56;26.80;44.30
21770;DHT22;11046;49.558;8.674;2023-05-25T13:34:57;26.80;43.90
21770;DHT22;11046;49.558;8.674;2023-05-25T13:37:59;26.70;43.60
21770;DHT22;11046;49.558;8.674;2023-05-25T13:41:00;26.40;43.50
21770;DHT22;11046;49.558;8.674;2023-05-25T13:44:00;26.20;43.80
21770;DHT22;11046;49.558;8.674;2023-05-25T13:47:01;26.30;43.90
21770;DHT22;11046;49.558;8.674;2023-05-25T13:50:02;26.40;43.50
21770;DHT22;11046;49.558;8.674;2023-05-25T13:53:02;26.20;43.70
21770;DHT22;11046;49.558;8.674;2023-05-25T13:56:03;25.90;43.60
21770;DHT22;11046;49.558;8.674;2023-05-25T13:59:03;25.90;43.50
21770;DHT22;11046;49.558;8.674;2023-05-25T14:02:16;26.00;44.00
21770;DHT22;11046;49.558;8.674;2023-05-25T14:05:20;26.20;43.60
21770;DHT22;11046;49.558;8.674;2023-05-25T14:08:28;26.10;43.30
21770;DHT22;11046;49.558;8.674;2023-05-25T14:11:33;25.90;43.40
21770;DHT22;11046;49.558;8.674;2023-05-25T14:14:38;26.10;43.90
21770;DHT22;11046;49.558;8.674;2023-05-25T14:17:50;26.20;43.50
21770;DHT22;11046;49.558;8.674;2023-05-25T14:20:51;26.20;43.50
21770;DHT22;11046;49.558;8.674;2023-05-25T14:24:11;26.20;43.40
21770;DHT22;11046;49.558;8.674;2023-05-25T14:27:14;26.10;43.10
21770;DHT22;11046;49.558;8.674;2023-05-25T14:30:20;26.00;43.40
21770;DHT22;11046;49.558;8.674;2023-05-25T14:33:23;26.10;44.40
21770;DHT22;11046;49.558;8.674;2023-05-25T14:36:24;26.00;43.00
21770;DHT22;11046;49.558;8.674;2023-05-25T14:39:25;25.90;43.30
21770;DHT22;11046;49.558;8.674;2023-05-25T14:42:25;26.00;43.40
21770;DHT22;11046;49.558;8.674;2023-05-25T14:45:26;26.10;43.30
21770;DHT22;11046;49.558;8.674;2023-05-25T14:48:27;26.20;43.10
21770;DHT22;11046;49.558;8.674;2023-05-25T14:51:28;26.40;42.90
21770;DHT22;11046;49.558;8.674;2023-05-25T14:54:28;26.40;43.50
21770;DHT22;11046;49.558;8.674;2023-05-25T14:57:29;26.40;43.30
21770;DHT22;11046;49.558;8.674;2023-05-25T15:00:29;26.30;43.60
21770;DHT22;11046;49.558;8.674;2023-05-25T15:03:30;26.10;43.40
21770;DHT22;11046;49.558;8.674;2023-05-25T15:06:31;26.00;43.50
21770;DHT22;11046;49.558;8.674;2023-05-25T15:09:32;26.00;43.60
21770;DHT22;11046;49.558;8.674;2023-05-25T15:12:33;26.00;43.60
21770;DHT22;11046;49.558;8.674;2023-05-25T15:15:33;26.00;43.70
21770;DHT22;11046;49.558;8.674;2023-05-25T15:18:34;26.00;43.60
21770;DHT22;11046;49.558;8.674;2023-05-25T15:21:34;25.90;43.50
21770;DHT22;11046;49.558;8.674;2023-05-25T15:24:36;25.90;43.50
21770;DHT22;11046;49.558;8.674;2023-05-25T15:27:37;25.70;43.50
21770;DHT22;11046;49.558;8.674;2023-05-25T15:30:37;25.60;43.50
21770;DHT22;11046;49.558;8.674;2023-05-25T15:33:38;25.40;43.60
21770;DHT22;11046;49.558;8.674;2023-05-25T15:36:38;25.40;43.60
21770;DHT22;11046;49.558;8.674;2023-05-25T15:39:39;25.30;43.40
21770;DHT22;11046;49.558;8.674;2023-05-25T15:42:40;25.30;43.60
21770;DHT22;11046;49.558;8.674;2023-05-25T15:45:40;25.30;43.40
21770;DHT22;11046;49.558;8.674;2023-05-25T15:48:41;25.20;43.50
21770;DHT22;11046;49.558;8.674;2023-05-25T15:51:42;25.00;43.50
21770;DHT22;11046;49.558;8.674;2023-05-25T15:54:43;24.80;43.50
21770;DHT22;11046;49.558;8.674;2023-05-25T15:57:44;24.80;43.50
21770;DHT22;11046;49.558;8.674;2023-05-25T16:00:44;24.70;43.40
21770;DHT22;11046;49.558;8.674;2023-05-25T16:03:46;24.60;43.80
21770;DHT22;11046;49.558;8.674;2023-05-25T16:06:47;24.60;44.00
21770;DHT22;11046;49.558;8.674;2023-05-25T16:09:47;24.70;44.20
21770;DHT22;11046;49.558;8.674;2023-05-25T16:12:48;24.70;44.10
21770;DHT22;11046;49.558;8.674;2023-05-25T16:15:48;24.60;44.00
21770;DHT22;11046;49.558;8.674;2023-05-25T16:18:49;24.60;44.10
21770;DHT22;11046;49.558;8.674;2023-05-25T16:21:51;24.50;43.70
21770;DHT22;11046;49.558;8.674;2023-05-25T16:24:51;24.40;43.80
21770;DHT22;11046;49.558;8.674;2023-05-25T16:27:52;24.40;43.80
21770;DHT22;11046;49.558;8.674;2023-05-25T16:30:53;24.30;43.90
21770;DHT22;11046;49.558;8.674;2023-05-25T16:33:53;24.20;44.10
21770;DHT22;11046;49.558;8.674;2023-05-25T16:36:54;24.10;44.20
21770;DHT22;11046;49.558;8.674;2023-05-25T16:39:54;24.20;44.40
21770;DHT22;11046;49.558;8.674;2023-05-25T16:42:55;24.20;44.60
21770;DHT22;11046;49.558;8.674;2023-05-25T16:45:55;24.20;44.50
21770;DHT22;11046;49.558;8.674;2023-05-25T16:48:56;24.10;44.30
21770;DHT22;11046;49.558;8.674;2023-05-25T16:51:56;23.90;44.50
21770;DHT22;11046;49.558;8.674;2023-05-25T16:54:57;23.90;44.70
21770;DHT22;11046;49.558;8.674;2023-05-25T16:57:58;23.70;44.70
21770;DHT22;11046;49.558;8.674;2023-05-25T17:00:59;23.50;44.80
21770;DHT22;11046;49.558;8.674;2023-05-25T17:03:59;23.40;45.50
21770;DHT22;11046;49.558;8.674;2023-05-25T17:07:00;23.30;44.90
21770;DHT22;11046;49.558;8.674;2023-05-25T17:10:01;23.30;45.30
21770;DHT22;11046;49.558;8.674;2023-05-25T17:13:01;23.30;45.50
21770;DHT22;11046;49.558;8.674;2023-05-25T17:16:02;23.20;45.60
21770;DHT22;11046;49.558;8.674;2023-05-25T17:19:02;23.10;45.90
21770;DHT22;11046;49.558;8.674;2023-05-25T17:22:03;23.00;46.50
21770;DHT22;11046;49.558;8.674;2023-05-25T17:25:05;22.90;47.20
21770;DHT22;11046;49.558;8.674;2023-05-25T17:28:06;22.90;47.70
21770;DHT22;11046;49.558;8.674;2023-05-25T17:31:06;22.80;48.00
21770;DHT22;11046;49.558;8.674;2023-05-25T17:34:07;22.80;48.30
21770;DHT22;11046;49.558;8.674;2023-05-25T17:37:07;22.70;48.40
21770;DHT22;11046;49.558;8.674;2023-05-25T17:40:08;22.40;48.80
21770;DHT22;11046;49.558;8.674;2023-05-25T17:43:09;22.30;49.10
21770;DHT22;11046;49.558;8.674;2023-05-25T17:46:10;22.30;49.20
21770;DHT22;11046;49.558;8.674;2023-05-25T17:49:10;22.20;49.40
21770;DHT22;11046;49.558;8.674;2023-05-25T17:52:11;22.10;49.80
21770;DHT22;11046;49.558;8.674;2023-05-25T17:55:11;22.00;50.20
21770;DHT22;11046;49.558;8.674;2023-05-25T17:58:12;22.00;50.40
21770;DHT22;11046;49.558;8.674;2023-05-25T18:01:13;21.90;50.50
21770;DHT22;11046;49.558;8.674;2023-05-25T18:04:14;21.80;50.70
21770;DHT22;11046;49.558;8.674;2023-05-25T18:07:15;21.60;50.90
21770;DHT22;11046;49.558;8.674;2023-05-25T18:10:15;21.50;51.10
21770;DHT22;11046;49.558;8.674;2023-05-25T18:13:16;21.40;52.20
21770;DHT22;11046;49.558;8.674;2023-05-25T18:16:16;21.40;51.60
21770;DHT22;11046;49.558;8.674;2023-05-25T18:19:17;21.20;51.90
21770;DHT22;11046;49.558;8.674;2023-05-25T18:22:19;21.10;52.20
21770;DHT22;11046;49.558;8.674;2023-05-25T18:25:20;21.00;52.50
21770;DHT22;11046;49.558;8.674;2023-05-25T18:28:21;20.90;52.70
21770;DHT22;11046;49.558;8.674;2023-05-25T18:31:22;21.00;52.80
21770;DHT22;11046;49.558;8.674;2023-05-25T18:34:24;20.90;52.90
21770;DHT22;11046;49.558;8.674;2023-05-25T18:37:24;20.80;53.10
21770;DHT22;11046;49.558;8.674;2023-05-25T18:40:25;20.70;53.40
21770;DHT22;11046;49.558;8.674;2023-05-25T18:43:26;20.70;53.60
21770;DHT22;11046;49.558;8.674;2023-05-25T18:46:26;20.60;53.60
21770;DHT22;11046;49.558;8.674;2023-05-25T18:49:28;20.40;53.90
21770;DHT22;11046;49.558;8.674;2023-05-25T18:52:33;20.30;54.30
21770;DHT22;11046;49.558;8.674;2023-05-25T18:55:34;20.20;54.60
21770;DHT22;11046;49.558;8.674;2023-05-25T18:58:35;20.10;54.70
21770;DHT22;11046;49.558;8.674;2023-05-25T19:01:35;20.00;55.20
21770;DHT22;11046;49.558;8.674;2023-05-25T19:04:36;19.80;55.60
21770;DHT22;11046;49.558;8.674;2023-05-25T19:07:37;19.70;55.70
21770;DHT22;11046;49.558;8.674;2023-05-25T19:10:42;19.60;55.80
21770;DHT22;11046;49.558;8.674;2023-05-25T19:13:43;19.40;56.10
21770;DHT22;11046;49.558;8.674;2023-05-25T19:16:43;19.30;56.40
21770;DHT22;11046;49.558;8.674;2023-05-25T19:19:44;19.30;56.70
21770;DHT22;11046;49.558;8.674;2023-05-25T19:22:44;19.20;56.80
21770;DHT22;11046;49.558;8.674;2023-05-25T19:25:45;19.10;57.20